Time;durP1;ratioP1;P1;durP2;ratioP2;P2;SDS_P1;SDS_P2;PMS_P1;PMS_P2;Temp;Humidity;BMP_temperature;BMP_pressure;BME280_temperature;BME280_humidity;BME280_pressure;Samples;Min_cycle;Max_cycle;Signal;HPM_P1;HPM_P2
2022/12/22 03:27:06;;;;;;;5.72;1.10;;;11.00;99.90;;;;;;4961479;29;20038;-89
2022/12/22 03:30:08;;;;;;;2.42;1.08;;;11.00;99.90;;;;;;4956691;29;20028;-87
2022/12/22 03:59:05;;;;;;;3.33;1.60;;;11.10;99.90;;;;;;4861567;29;20085;-86
2022/12/22 04:05:49;;;;;;;3.45;1.40;;;;;;;;;;4815155;29;20080;-86
2022/12/22 04:08:50;;;;;;;3.78;1.20;;;;;;;;;;4819786;29;20042;-88
2022/12/22 04:26:09;;;;;;;3.17;1.20;;;11.30;99.90;;;;;;4790946;30;20765;-85
2022/12/22 04:33:08;;;;;;;5.95;1.35;;;11.30;99.90;;;;;;4762489;30;20059;-87
2022/12/22 04:36:04;;;;;;;4.63;1.20;;;;;;;;;;4758492;30;20039;-88
2022/12/22 04:38:32;;;;;;;3.65;1.23;;;11.20;99.90;;;;;;4723981;30;20075;-86
2022/12/22 04:42:20;;;;;;;4.72;1.60;;;11.40;99.90;;;;;;4748598;30;20161;-86
2022/12/22 04:52:45;;;;;;;4.60;1.85;;;11.20;99.90;;;;;;4741797;30;20052;-88
2022/12/22 05:05:59;;;;;;;7.10;1.77;;;11.20;99.90;;;;;;4737306;30;20078;-87
2022/12/22 05:32:45;;;;;;;4.28;1.50;;;11.00;99.90;;;;;;4907380;29;20096;-88
2022/12/22 05:35:52;;;;;;;8.88;1.70;;;11.00;99.90;;;;;;4859820;29;20030;-86
2022/12/22 05:42:38;;;;;;;7.00;2.05;;;11.10;99.90;;;;;;4889874;29;20048;-85
2022/12/22 05:46:14;;;;;;;6.22;1.90;;;11.10;99.90;;;;;;4890422;29;20554;-84
2022/12/22 06:30:09;;;;;;;;;;;11.20;99.90;;;;;;4835915;29;20037;-88
2022/12/22 07:56:51;;;;;;;14.75;2.45;;;11.30;99.90;;;;;;4877452;29;20098;-87
2022/12/22 08:40:43;;;;;;;6.80;1.33;;;11.00;99.90;;;;;;4941402;29;20531;-88
2022/12/22 08:47:36;;;;;;;4.30;1.17;;;11.10;99.90;;;;;;4927554;29;20123;-86
2022/12/22 08:50:53;;;;;;;5.18;1.30;;;11.20;99.90;;;;;;4928413;29;20036;-86
2022/12/22 08:53:27;;;;;;;5.05;1.33;;;11.30;99.90;;;;;;4935374;29;20538;-87
2022/12/22 08:56:20;;;;;;;8.68;1.50;;;11.30;99.90;;;;;;4951155;29;20042;-88
2022/12/22 08:59:47;;;;;;;6.15;1.20;;;11.40;99.90;;;;;;4930894;29;20048;-86
2022/12/22 09:03:30;;;;;;;8.15;2.38;;;11.40;99.90;;;;;;4906936;29;20113;-85
2022/12/22 09:20:10;;;;;;;4.45;1.10;;;11.30;99.90;;;;;;4899115;29;20040;-86
2022/12/22 09:26:52;;;;;;;2.72;0.90;;;11.40;99.90;;;;;;4889582;29;20119;-86
2022/12/22 10:16:54;;;;;;;2.38;0.70;;;;;;;;;;4939005;29;20140;-88
2022/12/22 10:20:21;;;;;;;3.17;0.63;;;11.90;99.90;;;;;;4953520;29;20035;-86
2022/12/22 10:23:52;;;;;;;5.20;1.38;;;12.00;99.90;;;;;;4952951;29;20031;-87
2022/12/22 10:27:07;;;;;;;3.50;1.10;;;12.10;99.90;;;;;;4953379;29;20039;-87
2022/12/22 10:34:02;;;;;;;3.20;1.00;;;12.30;99.90;;;;;;4934855;29;20139;-85
2022/12/22 10:41:12;;;;;;;2.90;0.88;;;12.40;99.90;;;;;;4919385;29;20069;-84
2022/12/22 10:47:35;;;;;;;2.08;0.93;;;12.30;99.90;;;;;;4909193;29;20052;-86
2022/12/22 10:59:59;;;;;;;1.77;0.60;;;12.20;99.90;;;;;;4851145;29;20045;-85
2022/12/22 11:02:28;;;;;;;1.45;0.60;;;;;;;;;;4878054;29;20067;-86
2022/12/22 11:05:01;;;;;;;1.13;0.50;;;12.20;99.90;;;;;;4958645;29;20036;-86
2022/12/22 11:07:31;;;;;;;1.00;0.60;;;12.20;99.90;;;;;;4970040;29;20030;-86
2022/12/22 11:09:57;;;;;;;0.57;0.55;;;;;;;;;;4953533;29;20038;-87
2022/12/22 11:12:48;;;;;;;0.82;0.60;;;12.10;99.90;;;;;;4970719;29;20036;-87
2022/12/22 11:15:23;;;;;;;2.55;0.70;;;;;;;;;;4972078;28;20090;-84
2022/12/22 11:17:55;;;;;;;2.25;0.68;;;;;;;;;;4972757;29;20027;-86
2022/12/22 11:20:55;;;;;;;1.30;0.70;;;12.00;99.90;;;;;;4971700;29;20031;-85
2022/12/22 11:23:45;;;;;;;1.67;0.93;;;12.00;99.90;;;;;;4972048;29;20047;-85
2022/12/22 11:26:11;;;;;;;2.13;0.80;;;;;;;;;;4969919;29;20060;-85
2022/12/22 11:28:49;;;;;;;1.92;1.00;;;11.90;99.90;;;;;;4969933;29;20690;-86
2022/12/22 11:31:15;;;;;;;1.52;0.70;;;;;;;;;;4971720;29;20041;-85
2022/12/22 11:34:11;;;;;;;1.75;0.80;;;12.00;99.90;;;;;;4970455;29;20054;-86
2022/12/22 11:36:56;;;;;;;3.53;0.80;;;;;;;;;;4969245;29;20031;-86
2022/12/22 11:39:37;;;;;;;2.00;0.80;;;;;;;;;;4965045;29;20027;-87
2022/12/22 11:42:35;;;;;;;2.60;0.68;;;11.90;99.90;;;;;;4969896;28;20115;-87
2022/12/22 11:45:20;;;;;;;1.02;0.50;;;;;;;;;;4968612;28;20028;-86
2022/12/22 11:48:27;;;;;;;2.08;0.75;;;12.10;99.90;;;;;;4968574;29;20023;-84
2022/12/22 11:50:56;;;;;;;4.22;1.75;;;12.00;99.90;;;;;;4965679;29;20039;-84
2022/12/22 11:53:52;;;;;;;3.92;1.10;;;12.00;99.90;;;;;;4962118;29;20046;-85
2022/12/22 11:56:28;;;;;;;4.47;1.90;;;;;;;;;;4969630;29;20055;-86
2022/12/22 11:59:07;;;;;;;1.90;0.90;;;;;;;;;;4967822;29;20119;-85
2022/12/22 12:01:45;;;;;;;2.15;0.80;;;;;;;;;;4966489;29;20035;-86
2022/12/22 12:04:25;;;;;;;1.88;1.23;;;;;;;;;;4965754;29;20082;-85
2022/12/22 12:07:00;;;;;;;1.80;0.80;;;;;;;;;;4965645;29;20031;-85
2022/12/22 12:09:47;;;;;;;1.55;0.60;;;;;;;;;;4966167;29;20034;-84
2022/12/22 12:12:32;;;;;;;1.50;0.65;;;;;;;;;;4956221;29;20401;-82
2022/12/22 12:15:01;;;;;;;3.67;1.00;;;;;;;;;;4967390;29;20024;-88
2022/12/22 12:17:42;;;;;;;3.45;0.90;;;;;;;;;;4966493;29;20026;-85
2022/12/22 12:20:19;;;;;;;7.65;1.10;;;;;;;;;;4966682;29;20034;-86
2022/12/22 12:22:57;;;;;;;2.70;0.98;;;;;;;;;;4966209;29;20034;-84
2022/12/22 12:25:27;;;;;;;1.90;0.90;;;;;;;;;;4966447;29;20098;-84
2022/12/22 12:28:13;;;;;;;;;;;12.00;99.90;;;;;;4967407;29;20034;-87
2022/12/22 12:30:59;;;;;;;4.18;1.55;;;;;;;;;;4964294;29;19989;-83
2022/12/22 12:33:48;;;;;;;2.08;0.95;;;;;;;;;;4964960;29;20491;-84
2022/12/22 15:02:46;;;;;;;28.90;5.05;;;11.60;99.90;;;;;;5108613;23;20073;-89
2022/12/22 15:05:24;;;;;;;;;;;;;;;;;;;;;
2022/12/22 15:08:07;;;;;;;30.65;5.85;;;;;;;;;;5076708;28;19947;-88
2022/12/22 15:10:48;;;;;;;;;;;;;;;;;;;;;
2022/12/22 15:13:58;;;;;;;;;;;11.60;99.90;;;;;;5087531;28;20122;-89
2022/12/22 15:16:31;;;;;;;27.60;4.93;;;;;;;;;;5073493;28;20003;-88
2022/12/22 15:19:07;;;;;;;34.33;5.55;;;;;;;;;;5072026;28;20067;-92
2022/12/22 15:21:57;;;;;;;22.98;4.60;;;;;;;;;;5069318;28;20108;-89
2022/12/22 15:24:29;;;;;;;30.25;4.72;;;;;;;;;;5064943;28;20042;-90
2022/12/22 15:26:56;;;;;;;28.85;4.85;;;;;;;;;;5076436;28;20028;-89
2022/12/22 15:36:02;;;;;;;26.70;4.70;;;;;;;;;;5014379;28;20129;-88
2022/12/22 15:42:26;;;;;;;;;;;;;;;;;;;;;
2022/12/22 15:45:41;;;;;;;;;;;;;;;;;;;;;
2022/12/22 15:48:44;;;;;;;30.02;5.18;;;;;;;;;;4996575;28;21824;-89
2022/12/22 15:51:37;;;;;;;30.33;5.57;;;;;;;;;;5021104;28;20101;-88
2022/12/22 15:54:35;;;;;;;;;;;;;;;;;;;;;
2022/12/22 15:57:44;;;;;;;;;;;;;;;;;;;;;
2022/12/22 16:00:30;;;;;;;36.45;4.72;;;;;;;;;;5088102;28;20044;-84
2022/12/22 16:03:32;;;;;;;;;;;;;;;;;;;;;
2022/12/22 16:09:51;;;;;;;;;;;;;;;;;;;;;
2022/12/22 16:12:43;;;;;;;;;;;;;;;;;;;;;
2022/12/22 16:15:33;;;;;;;;;;;;;;;;;;;;;
2022/12/22 16:18:02;;;;;;;34.88;5.75;;;;;;;;;;5097069;28;20063;-88
2022/12/22 16:20:38;;;;;;;28.25;5.20;;;;;;;;;;5098498;28;20052;-86
2022/12/22 16:23:41;;;;;;;32.20;5.32;;;;;;;;;;5078558;28;20029;-88
2022/12/22 16:26:09;;;;;;;32.28;5.45;;;;;;;;;;5071775;28;20036;-84
2022/12/22 16:28:43;;;;;;;34.85;7.22;;;;;;;;;;5075360;28;20021;-86
2022/12/22 16:31:20;;;;;;;40.45;6.45;;;;;;;;;;5075679;28;20035;-86
2022/12/22 16:33:49;;;;;;;29.80;6.57;;;;;;;;;;5082249;28;20488;-87
2022/12/22 16:36:37;;;;;;;28.52;5.18;;;;;;;;;;5075434;28;20061;-86
2022/12/22 16:39:12;;;;;;;32.10;5.28;;;;;;;;;;5089420;28;20355;-89
2022/12/22 16:42:02;;;;;;;30.00;4.93;;;;;;;;;;5077423;28;20097;-86
2022/12/22 16:45:18;;;;;;;30.00;5.88;;;;;;;;;;5024786;28;20042;-89
2022/12/22 16:47:50;;;;;;;31.92;5.28;;;;;;;;;;5084071;28;20051;-86
2022/12/22 16:50:46;;;;;;;;;;;11.20;99.90;;;;;;5078747;28;20049;-86
2022/12/22 16:53:38;;;;;;;30.58;4.72;;;;;;;;;;5005776;28;19941;-87
2022/12/22 16:56:30;;;;;;;39.03;6.22;;;;;;;;;;5071984;28;21729;-86
2022/12/22 16:59:19;;;;;;;37.58;6.22;;;;;;;;;;5076356;28;20033;-87
2022/12/22 17:01:59;;;;;;;31.23;5.13;;;11.20;99.90;;;;;;5101081;22;20052;-86
2022/12/22 17:08:42;;;;;;;37.97;6.60;;;11.00;99.90;;;;;;5047951;28;20162;-86
2022/12/22 17:11:48;;;;;;;33.58;4.93;;;;;;;;;;5068330;28;20036;-82
2022/12/22 17:15:08;;;;;;;36.25;6.65;;;11.00;99.90;;;;;;5054101;28;20101;-86
2022/12/22 17:21:31;;;;;;;35.58;5.40;;;11.00;99.90;;;;;;5068313;28;20044;-86
2022/12/22 17:35:21;;;;;;;23.35;4.60;;;11.00;99.90;;;;;;4955637;28;20088;-86
2022/12/22 17:41:50;;;;;;;30.55;5.90;;;10.90;99.90;;;;;;4925276;29;20035;-84
2022/12/22 17:45:33;;;;;;;24.40;4.70;;;10.90;99.90;;;;;;4886880;29;20063;-85
2022/12/22 18:02:42;;;;;;;20.05;5.00;;;10.90;99.90;;;;;;4707511;30;20052;-87
2022/12/22 18:32:53;;;;;;;13.73;4.03;;;;;;;;;;4928760;28;20103;-84
2022/12/22 18:45:59;;;;;;;17.80;5.25;;;11.00;99.90;;;;;;5014766;28;20040;-88
2022/12/22 18:48:25;;;;;;;15.93;4.80;;;;;;;;;;4995690;28;20048;-87
2022/12/22 18:50:51;;;;;;;21.63;5.95;;;;;;;;;;5039106;28;20037;-87
2022/12/22 18:53:30;;;;;;;18.55;4.88;;;11.00;99.90;;;;;;5073131;28;20024;-88
2022/12/22 18:55:57;;;;;;;15.30;4.60;;;11.00;99.90;;;;;;5059076;28;20048;-84
2022/12/22 18:58:24;;;;;;;13.90;4.55;;;11.00;99.90;;;;;;5059409;28;20032;-86
2022/12/22 19:00:51;;;;;;;21.15;4.90;;;11.00;99.90;;;;;;5058664;28;20088;-86
2022/12/22 19:03:23;;;;;;;11.65;4.75;;;11.00;99.90;;;;;;5056072;28;20028;-84
2022/12/22 19:05:49;;;;;;;14.07;3.13;;;;;;;;;;5065151;28;20032;-88
2022/12/22 19:08:18;;;;;;;10.75;2.90;;;11.10;99.90;;;;;;5058538;28;20028;-83
2022/12/22 19:10:54;;;;;;;9.10;3.13;;;11.10;99.90;;;;;;5072512;28;20040;-84
2022/12/22 19:13:32;;;;;;;14.43;3.70;;;11.10;99.90;;;;;;5056406;28;20040;-87
2022/12/22 19:15:58;;;;;;;13.50;3.47;;;11.10;99.90;;;;;;5074222;28;20024;-87
2022/12/22 19:18:25;;;;;;;12.40;3.53;;;11.00;99.90;;;;;;5077478;28;20054;-86
2022/12/22 19:20:52;;;;;;;12.25;3.75;;;;;;;;;;5061709;28;20035;-85
2022/12/22 19:23:20;;;;;;;12.65;3.45;;;11.10;99.90;;;;;;5063211;28;20035;-86
2022/12/22 19:25:47;;;;;;;18.08;4.05;;;11.00;99.90;;;;;;5077030;28;20037;-88
2022/12/22 19:28:13;;;;;;;12.10;4.30;;;;;;;;;;5062589;28;20163;-86
2022/12/22 19:30:39;;;;;;;17.92;4.95;;;;;;;;;;5060452;28;20032;-87
2022/12/22 19:33:07;;;;;;;11.68;4.13;;;;;;;;;;5053084;28;20036;-87
2022/12/22 19:35:33;;;;;;;13.80;4.05;;;;;;;;;;5058293;28;20112;-86
2022/12/22 19:37:59;;;;;;;17.65;3.67;;;;;;;;;;5064936;28;20028;-88
2022/12/22 19:40:31;;;;;;;16.38;4.20;;;11.10;99.90;;;;;;5064768;28;20028;-89
2022/12/22 19:42:58;;;;;;;15.27;4.72;;;;;;;;;;5057331;28;20037;-87
2022/12/22 19:45:34;;;;;;;12.68;4.10;;;;;;;;;;5061572;28;20051;-89
2022/12/22 19:48:02;;;;;;;14.48;4.40;;;11.00;99.90;;;;;;5062185;28;20765;-88
2022/12/22 19:50:29;;;;;;;17.30;4.45;;;;;;;;;;5064269;28;20055;-87
2022/12/22 19:52:57;;;;;;;18.05;5.60;;;11.00;99.90;;;;;;5064470;28;20448;-86
2022/12/22 19:55:24;;;;;;;17.90;4.97;;;;;;;;;;5077060;28;20051;-86
2022/12/22 19:57:51;;;;;;;19.98;4.97;;;11.00;99.90;;;;;;5056204;28;20098;-84
2022/12/22 20:00:21;;;;;;;22.88;8.80;;;;;;;;;;5059751;28;20033;-87
2022/12/22 20:02:48;;;;;;;20.43;6.37;;;;;;;;;;5064205;28;20056;-87
2022/12/22 20:05:23;;;;;;;17.75;5.05;;;;;;;;;;5072672;28;20028;-85
2022/12/22 20:08:09;;;;;;;25.70;7.70;;;;;;;;;;5060888;28;20444;-85
2022/12/22 20:10:36;;;;;;;15.65;5.63;;;;;;;;;;5053794;28;20041;-86
2022/12/22 20:13:05;;;;;;;14.30;4.90;;;;;;;;;;5060300;28;20045;-86
2022/12/22 20:15:36;;;;;;;16.17;4.85;;;;;;;;;;5059404;28;20024;-85
2022/12/22 20:18:06;;;;;;;15.18;4.57;;;;;;;;;;5090259;28;20116;-89
2022/12/22 20:20:36;;;;;;;15.23;4.40;;;10.90;99.90;;;;;;5068453;28;20021;-89
2022/12/22 20:23:05;;;;;;;16.27;3.70;;;;;;;;;;5065494;28;20028;-88
2022/12/22 20:25:36;;;;;;;15.00;3.70;;;;;;;;;;5073710;28;20080;-87
2022/12/22 20:28:05;;;;;;;16.40;4.20;;;;;;;;;;5066756;28;20096;-89
2022/12/22 20:30:31;;;;;;;11.77;3.78;;;;;;;;;;5059400;28;20052;-87
2022/12/22 20:32:57;;;;;;;13.65;3.30;;;;;;;;;;5067806;28;20166;-88
2022/12/22 20:35:23;;;;;;;13.63;3.30;;;;;;;;;;5069169;28;20032;-88
2022/12/22 20:37:50;;;;;;;11.32;3.15;;;;;;;;;;5071141;28;20040;-88
2022/12/22 20:40:19;;;;;;;16.45;5.10;;;;;;;;;;5063216;28;20032;-89
2022/12/22 20:42:45;;;;;;;10.20;2.45;;;;;;;;;;5062484;28;20279;-87
2022/12/22 20:45:11;;;;;;;12.10;2.30;;;;;;;;;;5073027;28;20066;-89
2022/12/22 20:47:37;;;;;;;11.60;2.50;;;10.90;99.90;;;;;;5068356;28;20532;-88
2022/12/22 20:50:18;;;;;;;8.35;2.70;;;10.90;99.90;;;;;;5069220;28;20096;-89
2022/12/22 20:52:45;;;;;;;10.02;2.58;;;;;;;;;;5096151;28;20021;-87
2022/12/22 20:55:15;;;;;;;6.70;2.28;;;10.90;99.90;;;;;;5070793;28;20028;-87
2022/12/22 20:57:41;;;;;;;8.60;1.80;;;10.90;99.90;;;;;;5086375;28;20507;-88
2022/12/22 21:00:08;;;;;;;7.15;2.08;;;;;;;;;;5065657;28;20146;-88
2022/12/22 21:02:34;;;;;;;7.20;2.00;;;;;;;;;;5064435;28;20025;-88
2022/12/22 21:05:00;;;;;;;5.78;1.95;;;;;;;;;;5068090;28;20025;-88
2022/12/22 21:12:43;;;;;;;9.68;2.13;;;;;;;;;;5285870;23;20111;-81
2022/12/22 21:15:15;;;;;;;9.50;2.03;;;;;;;;;;5086270;28;20048;-81
2022/12/22 21:17:43;;;;;;;5.55;1.80;;;;;;;;;;5058691;28;20482;-82
2022/12/22 21:20:30;;;;;;;6.43;1.35;;;;;;;;;;5060136;28;20037;-80
2022/12/22 21:22:56;;;;;;;3.65;1.52;;;;;;;;;;5056602;28;20025;-78
2022/12/22 21:25:23;;;;;;;7.53;1.35;;;;;;;;;;5078517;28;20041;-78
2022/12/22 21:27:50;;;;;;;3.78;1.40;;;;;;;;;;5073974;28;20101;-80
2022/12/22 21:30:24;;;;;;;5.13;1.30;;;;;;;;;;5074387;28;20104;-81
2022/12/22 21:32:50;;;;;;;6.72;1.92;;;;;;;;;;5052943;28;20028;-81
2022/12/22 21:35:18;;;;;;;4.70;1.70;;;;;;;;;;5069072;28;20017;-79
2022/12/22 21:37:45;;;;;;;9.63;2.53;;;;;;;;;;5048791;28;20028;-79
2022/12/22 21:40:19;;;;;;;9.38;1.90;;;;;;;;;;5045051;28;20724;-79
2022/12/22 21:42:46;;;;;;;5.38;2.00;;;;;;;;;;5057646;28;20440;-79
2022/12/22 21:45:13;;;;;;;9.32;2.85;;;;;;;;;;5069620;28;20024;-77
2022/12/22 21:47:41;;;;;;;4.70;1.67;;;;;;;;;;5053811;28;20033;-79
2022/12/22 21:50:13;;;;;;;5.68;1.60;;;;;;;;;;5072177;28;20486;-79
2022/12/22 21:52:43;;;;;;;4.72;1.33;;;;;;;;;;5074901;28;20032;-78
2022/12/22 21:55:10;;;;;;;2.85;1.30;;;;;;;;;;5056064;28;20017;-78
2022/12/22 21:57:36;;;;;;;5.90;1.58;;;;;;;;;;5051647;28;20429;-79
2022/12/22 22:00:03;;;;;;;1.88;1.10;;;;;;;;;;5070171;28;20025;-79
2022/12/22 22:02:29;;;;;;;5.13;1.30;;;;;;;;;;5054534;28;20036;-79
2022/12/22 22:04:55;;;;;;;3.40;1.20;;;;;;;;;;5051554;28;20056;-82
2022/12/22 22:07:22;;;;;;;3.42;1.00;;;;;;;;;;5053557;28;20037;-79
2022/12/22 22:09:48;;;;;;;3.13;1.20;;;;;;;;;;5071834;28;20043;-80
2022/12/22 22:12:31;;;;;;;2.38;1.00;;;;;;;;;;5065472;28;20033;-80
2022/12/22 22:14:59;;;;;;;2.42;0.85;;;;;;;;;;5049178;28;20526;-81
2022/12/22 22:17:26;;;;;;;2.97;1.30;;;;;;;;;;5073595;28;20024;-79
2022/12/22 22:19:54;;;;;;;2.13;0.98;;;;;;;;;;5071068;28;20018;-81
2022/12/22 22:22:23;;;;;;;1.58;0.82;;;;;;;;;;5048761;28;20040;-81
2022/12/22 22:24:56;;;;;;;2.92;0.90;;;;;;;;;;5069353;28;20021;-81
2022/12/22 22:27:25;;;;;;;2.33;0.90;;;;;;;;;;5045247;28;20498;-82
2022/12/22 22:29:51;;;;;;;2.30;1.23;;;;;;;;;;5052020;28;20086;-79
2022/12/22 22:32:21;;;;;;;2.33;1.10;;;;;;;;;;5055810;28;20108;-81
2022/12/22 22:34:48;;;;;;;;;;;10.70;99.90;;;;;;5054026;28;20021;-83
2022/12/22 22:37:14;;;;;;;2.90;1.63;;;;;;;;;;5047125;28;19913;-81
2022/12/22 22:39:48;;;;;;;3.92;1.33;;;;;;;;;;5058344;28;20033;-80
2022/12/22 22:42:17;;;;;;;2.28;1.10;;;;;;;;;;5067582;28;20098;-80
2022/12/22 22:44:43;;;;;;;2.63;1.38;;;;;;;;;;5061656;28;20036;-80
2022/12/22 22:47:17;;;;;;;2.15;1.40;;;;;;;;;;5077366;28;20025;-80
2022/12/22 22:49:43;;;;;;;2.28;1.40;;;;;;;;;;5041943;28;20029;-80
2022/12/22 22:52:14;;;;;;;6.05;2.78;;;;;;;;;;5053118;28;20036;-79
2022/12/22 22:54:40;;;;;;;;;;;;;;;;;;5078587;28;20030;-81
2022/12/22 22:57:06;;;;;;;2.00;1.20;;;;;;;;;;5074824;28;20278;-80
2022/12/22 22:59:33;;;;;;;3.22;1.90;;;;;;;;;;5057733;28;20029;-80
2022/12/22 23:02:04;;;;;;;3.05;1.60;;;;;;;;;;5051206;28;20032;-79
2022/12/22 23:04:34;;;;;;;2.20;1.30;;;;;;;;;;5054467;28;20044;-79
2022/12/22 23:07:01;;;;;;;4.38;2.00;;;;;;;;;;5055096;28;20040;-80
2022/12/22 23:09:30;;;;;;;2.92;1.52;;;;;;;;;;5055399;28;20089;-82
2022/12/22 23:11:57;;;;;;;2.63;1.30;;;;;;;;;;5073733;28;20111;-80
2022/12/22 23:14:32;;;;;;;2.70;1.08;;;;;;;;;;5082179;28;20032;-84
2022/12/22 23:16:58;;;;;;;3.00;1.52;;;;;;;;;;5074166;28;20036;-83
2022/12/22 23:19:27;;;;;;;2.45;1.20;;;;;;;;;;5086113;28;20036;-80
2022/12/22 23:21:55;;;;;;;3.25;1.30;;;;;;;;;;5057026;28;20020;-80
2022/12/22 23:24:24;;;;;;;2.63;1.20;;;;;;;;;;5054065;28;20032;-79
2022/12/22 23:26:54;;;;;;;3.20;1.52;;;;;;;;;;5074617;28;20047;-79
2022/12/22 23:29:22;;;;;;;4.72;2.15;;;;;;;;;;5068641;28;20032;-80
2022/12/22 23:31:48;;;;;;;6.03;1.75;;;;;;;;;;5053076;28;20032;-79
2022/12/22 23:34:17;;;;;;;3.53;1.50;;;;;;;;;;5056623;28;20025;-79
2022/12/22 23:36:57;;;;;;;11.55;4.30;;;;;;;;;;5045005;28;20036;-78
2022/12/22 23:39:23;;;;;;;8.30;3.78;;;;;;;;;;5055768;28;20035;-79
2022/12/22 23:41:49;;;;;;;10.75;5.15;;;;;;;;;;5051475;28;20128;-80
2022/12/22 23:44:16;;;;;;;4.85;2.92;;;;;;;;;;5063767;28;20479;-80
2022/12/22 23:46:42;;;;;;;5.38;2.67;;;;;;;;;;5046602;28;20024;-80
2022/12/22 23:49:13;;;;;;;4.55;1.88;;;;;;;;;;5063237;28;20598;-80
2022/12/22 23:51:41;;;;;;;3.15;1.80;;;;;;;;;;5074265;28;20101;-78
2022/12/22 23:54:07;;;;;;;2.30;1.50;;;;;;;;;;5051667;28;20390;-79
2022/12/22 23:56:35;;;;;;;3.00;1.50;;;;;;;;;;5075090;28;20035;-79
2022/12/22 23:59:04;;;;;;;3.67;1.70;;;;;;;;;;5070526;28;20102;-80
